Time;durP1;ratioP1;P1;durP2;ratioP2;P2;SDS_P1;SDS_P2;PMS_P1;PMS_P2;Temp;Humidity;BMP_temperature;BMP_pressure;BME280_temperature;BME280_humidity;BME280_pressure;Samples;Min_cycle;Max_cycle;Signal;HPM_P1;HPM_P2
2023/11/16 00:05:53;;;;;;;9.40;6.70;;;;;;;5.60;93.19;98450.89;435397;1250;99221;-40
2023/11/16 00:15:57;;;;;;;9.10;6.20;;;;;;;5.52;93.41;98449.48;435350;1255;108439;-41
2023/11/16 00:36:11;;;;;;;6.30;4.80;;;;;;;5.60;93.35;98464.37;435394;1250;111108;-41
2023/11/16 00:56:18;;;;;;;10.80;7.20;;;;;;;5.70;93.57;98480.92;435603;1250;98799;-40
2023/11/16 01:06:25;;;;;;;11.40;6.50;;;;;;;5.65;93.61;98482.08;435425;1254;108338;-40
2023/11/16 01:26:35;;;;;;;14.10;9.30;;;;;;;5.68;93.38;98485.13;435467;1255;111579;-41
2023/11/16 01:36:38;;;;;;;19.90;11.20;;;;;;;5.75;93.36;98486.33;435197;1255;107975;-40
2023/11/16 01:46:43;;;;;;;43.20;22.60;;;;;;;5.74;93.64;98487.52;435435;1250;98831;-40
2023/11/16 02:06:51;;;;;;;11.60;7.70;;;;;;;5.62;93.44;98490.39;436329;1247;99205;-40
2023/11/16 02:16:56;;;;;;;25.70;15.10;;;;;;;5.64;93.39;98488.66;435264;1250;111074;-41
2023/11/16 02:27:01;;;;;;;18.70;13.90;;;;;;;5.61;93.25;98483.98;435186;1250;108378;-40
2023/11/16 02:37:05;;;;;;;19.20;13.40;;;;;;;5.57;93.30;98484.99;435355;1250;98022;-41
2023/11/16 02:47:11;;;;;;;18.10;12.50;;;;;;;5.48;93.65;98489.59;435333;1254;108190;-40
2023/11/16 02:57:15;;;;;;;12.20;9.90;;;;;;;5.49;93.47;98500.32;435327;1256;99202;-39
2023/11/16 03:07:19;;;;;;;18.40;12.00;;;;;;;5.55;93.45;98511.30;435285;1254;110714;-39
2023/11/16 03:27:44;;;;;;;25.30;15.90;;;;;;;5.63;93.71;98513.80;435363;1250;99266;-40
2023/11/16 03:37:48;;;;;;;27.60;16.50;;;;;;;5.61;93.93;98521.27;435325;1255;108592;-40
2023/11/16 03:47:52;;;;;;;22.50;14.60;;;;;;;5.56;93.56;98527.60;435187;1254;99202;-40
2023/11/16 03:57:55;;;;;;;19.90;14.00;;;;;;;5.59;93.76;98526.84;435187;1253;112005;-41
2023/11/16 04:18:03;;;;;;;25.40;17.40;;;;;;;5.70;93.77;98542.02;435336;1253;99224;-40
2023/11/16 04:28:07;;;;;;;35.80;19.60;;;;;;;5.62;93.91;98541.33;435348;1253;108906;-40
2023/11/16 04:38:12;;;;;;;25.80;15.50;;;;;;;5.64;93.82;98539.98;435281;1253;98547;-40
2023/11/16 04:48:17;;;;;;;18.30;12.50;;;;;;;5.63;93.59;98532.96;435287;1250;110849;-39
2023/11/16 04:58:21;;;;;;;15.20;12.20;;;;;;;5.62;93.81;98543.83;435206;1250;107426;-40
2023/11/16 05:08:25;;;;;;;18.70;12.90;;;;;;;5.75;94.20;98543.80;435285;1249;97980;-39
2023/11/16 05:18:29;;;;;;;20.10;14.60;;;;;;;5.73;94.09;98540.21;435301;1255;107444;-40
2023/11/16 05:28:33;;;;;;;17.60;13.90;;;;;;;5.66;93.82;98549.92;435345;1256;98076;-40
2023/11/16 05:38:37;;;;;;;20.10;14.00;;;;;;;5.67;93.94;98542.91;435373;1250;111411;-40
2023/11/16 05:48:41;;;;;;;20.40;16.20;;;;;;;5.69;93.84;98544.16;435276;1255;108544;-39
2023/11/16 05:58:46;;;;;;;34.40;19.30;;;;;;;5.82;94.39;98547.44;435336;1254;99241;-40
2023/11/16 06:08:50;;;;;;;34.30;22.30;;;;;;;5.84;94.16;98544.59;435248;1255;108265;-41
2023/11/16 06:18:56;;;;;;;32.40;20.20;;;;;;;5.70;94.11;98536.30;435241;1250;99211;-40
2023/11/16 06:29:00;;;;;;;28.40;15.60;;;;;;;5.63;93.93;98538.05;435399;1255;111052;-40
2023/11/16 06:39:02;;;;;;;20.00;14.10;;;;;;;5.56;93.90;98552.62;435334;1250;107985;-39
2023/11/16 06:49:07;;;;;;;27.70;16.20;;;;;;;5.45;94.18;98548.27;435448;1254;99240;-39
2023/11/16 07:09:17;;;;;;;28.30;18.20;;;;;;;5.71;94.46;98533.52;435288;1254;98837;-39
2023/11/16 07:19:21;;;;;;;25.00;16.00;;;;;;;5.71;94.38;98540.49;435377;1254;111771;-39
2023/11/16 07:29:25;;;;;;;23.20;14.90;;;;;;;5.70;94.17;98543.12;435319;1263;108231;-40
2023/11/16 07:49:34;;;;;;;20.70;13.20;;;;;;;5.83;94.53;98535.98;435299;1263;108363;-40
2023/11/16 07:59:37;;;;;;;22.40;14.80;;;;;;;6.09;94.52;98542.30;435461;1250;98492;-39
2023/11/16 08:09:42;;;;;;;20.30;14.70;;;;;;;6.21;94.46;98535.69;435415;1250;111134;-41
2023/11/16 08:19:46;;;;;;;22.00;15.10;;;;;;;6.14;94.33;98533.30;435396;1253;108364;-41
2023/11/16 08:29:49;;;;;;;21.30;15.20;;;;;;;6.18;94.21;98528.33;435313;1255;99230;-38
2023/11/16 08:39:53;;;;;;;24.40;15.40;;;;;;;6.33;94.26;98532.51;435274;1253;108696;-40
2023/11/16 08:49:57;;;;;;;26.10;15.90;;;;;;;6.32;94.19;98533.48;435326;1253;98534;-40
2023/11/16 09:20:10;;;;;;;20.00;13.40;;;;;;;6.24;94.69;98521.79;435534;1251;98398;-38
2023/11/16 09:50:27;;;;;;;19.90;11.70;;;;;;;6.60;94.93;98514.71;435452;1251;113948;-39
2023/11/16 10:00:34;;;;;;;20.00;12.60;;;;;;;6.87;95.07;98496.66;435386;1256;107861;-39
2023/11/16 10:10:38;;;;;;;21.80;13.20;;;;;;;7.53;95.49;98466.14;435396;1257;99231;-40
2023/11/16 10:20:41;;;;;;;22.40;15.50;;;;;;;8.27;95.46;98436.27;435431;1253;107634;-39
2023/11/16 10:30:46;;;;;;;22.60;16.80;;;;;;;8.28;94.61;98422.75;435398;1254;98805;-38
2023/11/16 11:01:07;;;;;;;21.30;14.80;;;;;;;8.35;94.57;98430.66;435367;1263;98121;-40
2023/11/16 11:11:11;;;;;;;19.70;13.60;;;;;;;8.30;94.66;98432.71;435375;1251;108629;-41
2023/11/16 11:31:34;;;;;;;19.70;13.60;;;;;;;8.37;94.13;98409.70;435504;1253;110779;-39
2023/11/16 11:41:47;;;;;;;11.90;9.60;;;;;;;8.79;94.22;98399.10;435329;1251;106553;-40
2023/11/16 12:01:55;;;;;;;18.10;11.70;;;;;;;8.75;93.69;98368.25;435561;1253;106861;-40
2023/11/16 12:12:03;;;;;;;16.70;10.90;;;;;;;8.89;93.79;98344.41;435495;1251;98008;-40
2023/11/16 12:32:09;;;;;;;14.40;9.50;;;;;;;8.76;93.29;98325.70;435481;1254;107352;-39
2023/11/16 12:42:11;;;;;;;18.70;10.90;;;;;;;8.61;93.29;98324.13;435251;1251;470982;-40
2023/11/16 12:52:14;;;;;;;11.30;7.50;;;;;;;8.51;92.93;98301.23;435493;1254;110696;-39
2023/11/16 13:12:20;;;;;;;14.90;9.10;;;;;;;9.15;92.90;98271.52;435336;1251;111102;-39
2023/11/16 13:22:26;;;;;;;18.80;9.70;;;;;;;9.10;92.67;98261.84;435403;1251;108744;-40
2023/11/16 13:32:28;;;;;;;13.40;8.10;;;;;;;8.99;92.42;98266.61;435356;1249;98049;-40
2023/11/16 13:42:32;;;;;;;13.90;8.80;;;;;;;8.78;92.04;98275.34;435357;1251;106980;-41
2023/11/16 13:52:35;;;;;;;16.70;11.00;;;;;;;8.64;91.81;98265.60;435583;1250;98576;-39
2023/11/16 14:12:45;;;;;;;25.50;15.40;;;;;;;8.12;91.88;98256.38;435638;1249;108673;-40
2023/11/16 14:42:56;;;;;;;36.50;21.60;;;;;;;7.76;92.18;98240.21;435372;1254;99285;-40
2023/11/16 14:53:00;;;;;;;38.60;23.50;;;;;;;7.65;92.43;98226.06;435522;1251;112236;-39
2023/11/16 15:03:11;;;;;;;38.30;23.60;;;;;;;7.50;92.57;98213.95;435265;1254;106649;-39
2023/11/16 15:23:18;;;;;;;22.00;11.80;;;;;;;7.41;92.23;98206.83;435357;1255;107425;-40
2023/11/16 15:33:20;;;;;;;21.20;14.10;;;;;;;7.27;92.02;98194.91;435265;1253;99226;-40
2023/11/16 15:43:24;;;;;;;29.90;20.10;;;;;;;7.18;92.05;98185.12;435324;1253;112011;-41
2023/11/16 15:53:27;;;;;;;28.60;16.20;;;;;;;6.98;92.06;98196.23;435296;1249;108117;-40
2023/11/16 16:03:31;;;;;;;16.00;8.50;;;;;;;6.77;91.85;98180.73;435344;1254;99218;-41
2023/11/16 16:13:35;;;;;;;22.20;11.20;;;;;;;6.60;91.56;98162.52;435252;1254;109218;-39
2023/11/16 16:23:39;;;;;;;18.30;11.60;;;;;;;6.54;91.57;98148.15;435692;1250;99276;-41
2023/11/16 16:33:42;;;;;;;33.80;18.60;;;;;;;6.42;91.41;98138.44;435435;1254;111677;-40
2023/11/16 16:53:47;;;;;;;51.10;25.20;;;;;;;6.02;91.15;98125.61;435533;1251;99243;-40
2023/11/16 17:03:50;;;;;;;76.30;30.80;;;;;;;5.90;90.93;98120.67;435399;1249;108483;-41
2023/11/16 17:13:55;;;;;;;58.30;30.60;;;;;;;5.68;90.83;98111.91;435445;1250;99238;-40
2023/11/16 17:23:58;;;;;;;71.70;42.30;;;;;;;5.43;90.94;98107.99;435344;1253;111567;-39
2023/11/16 18:04:10;;;;;;;54.20;30.20;;;;;;;4.61;90.97;98137.23;435386;1249;99253;-39
2023/11/16 18:14:14;;;;;;;49.70;31.40;;;;;;;4.55;91.12;98140.63;435303;1272;110470;-40
2023/11/16 18:24:17;;;;;;;69.50;45.30;;;;;;;4.47;91.21;98150.98;435318;1254;108348;-40
2023/11/16 18:34:25;;;;;;;84.90;50.10;;;;;;;4.44;91.91;98159.27;435313;1250;99228;-40
2023/11/16 18:54:31;;;;;;;60.40;38.70;;;;;;;4.65;91.79;98145.48;435277;1249;99214;-40
2023/11/16 19:04:35;;;;;;;57.80;36.60;;;;;;;4.75;91.98;98131.10;435263;1250;111801;-40
2023/11/16 19:14:40;;;;;;;78.60;49.20;;;;;;;4.74;92.01;98102.97;435180;1254;109114;-40
2023/11/16 19:34:48;;;;;;;77.80;49.00;;;;;;;4.47;91.93;98077.30;435311;1250;107820;-40
2023/11/16 20:15:02;;;;;;;61.30;37.80;;;;;;;4.61;92.67;98047.16;435300;1253;99231;-40
2023/11/16 20:25:13;;;;;;;76.50;43.70;;;;;;;4.72;92.96;98043.74;435314;1255;108584;-40
2023/11/16 20:35:17;;;;;;;78.20;44.30;;;;;;;4.67;93.02;98032.27;435329;1254;98747;-38
2023/11/16 20:45:22;;;;;;;63.20;36.90;;;;;;;4.69;93.00;98014.17;435374;1254;111140;-40
2023/11/16 20:55:25;;;;;;;52.80;33.60;;;;;;;4.82;93.13;97990.27;435339;1254;105975;-40
2023/11/16 21:05:29;;;;;;;68.40;39.50;;;;;;;4.92;93.13;97983.57;435432;1250;99212;-41
2023/11/16 21:15:33;;;;;;;84.20;48.70;;;;;;;4.97;93.33;97971.38;435354;1254;108849;-39
2023/11/16 21:25:36;;;;;;;80.20;48.60;;;;;;;4.96;93.40;97956.19;435416;1254;98763;-39
2023/11/16 21:35:38;;;;;;;75.80;46.40;;;;;;;5.01;93.50;97936.34;435517;1250;111409;-40
2023/11/16 21:45:43;;;;;;;69.00;40.30;;;;;;;5.15;93.57;97921.89;435400;1250;108523;-40
2023/11/16 21:55:47;;;;;;;80.40;46.10;;;;;;;5.21;93.45;97917.06;435338;1254;99247;-41
2023/11/16 22:05:50;;;;;;;98.10;55.50;;;;;;;5.26;93.70;97914.89;435366;1254;107062;-39
2023/11/16 22:15:53;;;;;;;118.90;65.40;;;;;;;5.28;93.78;97898.55;435398;1250;98704;-40
2023/11/16 22:25:57;;;;;;;86.40;54.50;;;;;;;5.20;93.61;97898.70;435438;1253;112085;-40
2023/11/16 22:36:01;;;;;;;83.10;50.50;;;;;;;5.19;93.41;97886.21;435236;1254;108547;-40
2023/11/16 22:46:04;;;;;;;93.20;50.60;;;;;;;5.26;93.78;97871.46;435363;1254;99285;-41
2023/11/16 23:06:13;;;;;;;100.80;52.50;;;;;;;5.22;93.95;97859.31;435449;1250;98804;-40
2023/11/16 23:16:19;;;;;;;66.60;38.90;;;;;;;5.23;93.82;97864.02;435250;1255;113378;-40
2023/11/16 23:36:29;;;;;;;60.80;37.40;;;;;;;5.23;94.04;97869.79;435262;1255;99209;-40
2023/11/16 23:46:34;;;;;;;63.80;37.80;;;;;;;5.25;94.11;97868.64;435324;1253;107096;-40
2023/11/16 23:56:37;;;;;;;60.50;34.50;;;;;;;5.37;94.44;97860.86;435344;1250;98792;-40
